GLO1741 SBBV-SBBR
Flight info
| Callsign | GLO1741 |
|---|---|
| Flight time | 3h 15m |
| Altitude | 37000 |
| Route | KIGOX DCT LODOK UZ24 OPNAX |
| Aircraft | B738/M-SDFGIKLORWX/LB1 |
Departure
| Time | 2026-04-25 16:22 |
|---|---|
| Airport | Atlas Brasil Cantanhede International Airport (SBBV) |
Arrival
| Time | 2026-04-25 19:37 |
|---|---|
| Airport | Presidente Juscelino Kubitschek International Airport (SBBR) |
| Time | Latitude | Longitude | Altitude | Speed | Heading |
|---|---|---|---|---|---|
| 2026-04-25 16:03 | 2.84200 | -60.69246 | 295 ft | 0 kts | 153° |
| 2026-04-25 16:15 | 2.84216 | -60.69255 | 282 ft | 4 kts | 146° |
| 2026-04-25 16:16 | 2.84237 | -60.69272 | 281 ft | 4 kts | 130° |
| 2026-04-25 16:16 | 2.84249 | -60.69294 | 282 ft | 4 kts | 92° |
| 2026-04-25 16:16 | 2.84247 | -60.69309 | 283 ft | 1 kts | 63° |
| 2026-04-25 16:16 | 2.84245 | -60.69311 | 283 ft | 0 kts | 63° |
| 2026-04-25 16:18 | 2.84262 | -60.69279 | 282 ft | 6 kts | 62° |
| 2026-04-25 16:18 | 2.84294 | -60.69233 | 279 ft | 9 kts | 30° |
| 2026-04-25 16:19 | 2.84326 | -60.69274 | 278 ft | 11 kts | 247° |
| 2026-04-25 16:19 | 2.84286 | -60.69352 | 278 ft | 14 kts | 243° |
| 2026-04-25 16:19 | 2.84235 | -60.69451 | 279 ft | 17 kts | 243° |
| 2026-04-25 16:20 | 2.84111 | -60.69692 | 278 ft | 20 kts | 243° |
| 2026-04-25 16:20 | 2.84049 | -60.69813 | 280 ft | 19 kts | 243° |
| 2026-04-25 16:20 | 2.83987 | -60.70042 | 279 ft | 18 kts | 324° |
| 2026-04-25 16:21 | 2.84098 | -60.70039 | 279 ft | 17 kts | 50° |
| 2026-04-25 16:21 | 2.84179 | -60.69888 | 278 ft | 50 kts | 63° |
| 2026-04-25 16:21 | 2.84450 | -60.69358 | 277 ft | 119 kts | 63° |
| 2026-04-25 16:21 | 2.84918 | -60.68451 | 311 ft | 171 kts | 62° |
| 2026-04-25 16:22 | 2.85297 | -60.67726 | 637 ft | 179 kts | 62° |
| 2026-04-25 16:22 | 2.85856 | -60.66639 | 1539 ft | 175 kts | 63° |
| 2026-04-25 16:22 | 2.86450 | -60.65473 | 1942 ft | 205 kts | 63° |
| 2026-04-25 16:22 | 2.87141 | -60.64125 | 2172 ft | 230 kts | 63° |
| 2026-04-25 16:23 | 2.87777 | -60.62567 | 2418 ft | 254 kts | 82° |
| 2026-04-25 16:23 | 2.87612 | -60.60798 | 3152 ft | 261 kts | 111° |
| 2026-04-25 16:23 | 2.86618 | -60.59293 | 4072 ft | 262 kts | 133° |
| 2026-04-25 16:23 | 2.85269 | -60.58075 | 4843 ft | 268 kts | 140° |
| 2026-04-25 16:24 | 2.83800 | -60.56915 | 5657 ft | 271 kts | 141° |
| 2026-04-25 16:24 | 2.82295 | -60.55759 | 6441 ft | 275 kts | 142° |
| 2026-04-25 16:24 | 2.80763 | -60.54582 | 7169 ft | 279 kts | 142° |
| 2026-04-25 16:24 | 2.79213 | -60.53384 | 7902 ft | 283 kts | 142° |
| 2026-04-25 16:25 | 2.77647 | -60.52165 | 8633 ft | 288 kts | 142° |
| 2026-04-25 16:25 | 2.76577 | -60.51327 | 9131 ft | 290 kts | 142° |
| 2026-04-25 16:25 | 2.74455 | -60.49659 | 10096 ft | 296 kts | 142° |
| 2026-04-25 16:25 | 2.72797 | -60.48350 | 10432 ft | 315 kts | 142° |
| 2026-04-25 16:26 | 2.71011 | -60.46936 | 10598 ft | 338 kts | 142° |
| 2026-04-25 16:26 | 2.69119 | -60.45437 | 10870 ft | 354 kts | 142° |
| 2026-04-25 16:26 | 2.67169 | -60.43888 | 11400 ft | 361 kts | 142° |
| 2026-04-25 16:26 | 2.65200 | -60.42324 | 12077 ft | 362 kts | 142° |
| 2026-04-25 16:27 | 2.63215 | -60.40745 | 12698 ft | 366 kts | 142° |
| 2026-04-25 16:27 | 2.61208 | -60.39149 | 13296 ft | 371 kts | 142° |
| 2026-04-25 16:27 | 2.59180 | -60.37535 | 13870 ft | 375 kts | 142° |
| 2026-04-25 16:27 | 2.57126 | -60.35901 | 14401 ft | 380 kts | 142° |
| 2026-04-25 16:28 | 2.55051 | -60.34250 | 15040 ft | 381 kts | 142° |
| 2026-04-25 16:28 | 2.52966 | -60.32591 | 15546 ft | 386 kts | 141° |
| 2026-04-25 16:28 | 2.50853 | -60.30910 | 16026 ft | 390 kts | 141° |
| 2026-04-25 16:28 | 2.48724 | -60.29216 | 16562 ft | 393 kts | 141° |
| 2026-04-25 16:29 | 2.46603 | -60.27529 | 17091 ft | 396 kts | 141° |
| 2026-04-25 16:29 | 2.44438 | -60.25807 | 17586 ft | 400 kts | 141° |
| 2026-04-25 16:29 | 2.42248 | -60.24064 | 18099 ft | 403 kts | 141° |
| 2026-04-25 16:29 | 2.40040 | -60.22308 | 18536 ft | 407 kts | 141° |
| 2026-04-25 16:30 | 2.37823 | -60.20544 | 18988 ft | 408 kts | 141° |
| 2026-04-25 16:30 | 2.35593 | -60.18771 | 19455 ft | 410 kts | 141° |
| 2026-04-25 16:30 | 2.33354 | -60.16990 | 19854 ft | 413 kts | 141° |
| 2026-04-25 16:30 | 2.31094 | -60.15192 | 20263 ft | 416 kts | 141° |
| 2026-04-25 16:31 | 2.28819 | -60.13383 | 20657 ft | 419 kts | 141° |
| 2026-04-25 16:31 | 2.26534 | -60.11566 | 21082 ft | 421 kts | 142° |
| 2026-04-25 16:31 | 2.24235 | -60.09737 | 21484 ft | 423 kts | 142° |
| 2026-04-25 16:31 | 2.21926 | -60.07901 | 21851 ft | 426 kts | 142° |
| 2026-04-25 16:32 | 2.19591 | -60.06045 | 22229 ft | 429 kts | 142° |
| 2026-04-25 16:32 | 2.17250 | -60.04184 | 22628 ft | 430 kts | 142° |
| 2026-04-25 16:32 | 2.14902 | -60.02317 | 22986 ft | 433 kts | 142° |
| 2026-04-25 16:32 | 2.12568 | -60.00461 | 23356 ft | 435 kts | 142° |
| 2026-04-25 16:33 | 2.10191 | -59.98571 | 23681 ft | 437 kts | 142° |
| 2026-04-25 16:33 | 2.07809 | -59.96678 | 23995 ft | 438 kts | 141° |
| 2026-04-25 16:33 | 2.05422 | -59.94780 | 24366 ft | 438 kts | 141° |
| 2026-04-25 16:33 | 2.03036 | -59.92883 | 24716 ft | 438 kts | 141° |
| 2026-04-25 16:34 | 2.00653 | -59.90988 | 25038 ft | 439 kts | 141° |
| 2026-04-25 16:34 | 1.98259 | -59.89085 | 25347 ft | 440 kts | 141° |
| 2026-04-25 16:34 | 1.95858 | -59.87177 | 25660 ft | 441 kts | 141° |
| 2026-04-25 16:34 | 1.93453 | -59.85266 | 25973 ft | 442 kts | 141° |
| 2026-04-25 16:35 | 1.91040 | -59.83348 | 26222 ft | 444 kts | 141° |
| 2026-04-25 16:35 | 1.88620 | -59.81425 | 26492 ft | 446 kts | 141° |
| 2026-04-25 16:35 | 1.86187 | -59.79491 | 26774 ft | 447 kts | 141° |
| 2026-04-25 16:35 | 1.83753 | -59.77556 | 27051 ft | 448 kts | 141° |
| 2026-04-25 16:36 | 1.81307 | -59.75613 | 27326 ft | 449 kts | 141° |
| 2026-04-25 16:36 | 1.80513 | -59.74982 | 27408 ft | 450 kts | 141° |
| 2026-04-25 16:36 | 1.76430 | -59.71737 | 27846 ft | 452 kts | 140° |
| 2026-04-25 16:36 | 1.73963 | -59.69777 | 28118 ft | 453 kts | 140° |
| 2026-04-25 16:37 | 1.71496 | -59.67817 | 28367 ft | 454 kts | 140° |
| 2026-04-25 16:37 | 1.69011 | -59.65842 | 28625 ft | 455 kts | 140° |
| 2026-04-25 16:37 | 1.66526 | -59.63869 | 28885 ft | 456 kts | 140° |
| 2026-04-25 16:37 | 1.64042 | -59.61895 | 29136 ft | 457 kts | 140° |
| 2026-04-25 16:38 | 1.61545 | -59.59911 | 29347 ft | 459 kts | 140° |
| 2026-04-25 16:38 | 1.59047 | -59.57927 | 29587 ft | 460 kts | 140° |
| 2026-04-25 16:38 | 1.56538 | -59.55933 | 29804 ft | 461 kts | 140° |
| 2026-04-25 16:38 | 1.54025 | -59.53936 | 30065 ft | 461 kts | 140° |
| 2026-04-25 16:39 | 1.51518 | -59.51946 | 30389 ft | 458 kts | 140° |
| 2026-04-25 16:39 | 1.49031 | -59.49971 | 30715 ft | 456 kts | 140° |
| 2026-04-25 16:39 | 1.46581 | -59.48026 | 31012 ft | 455 kts | 140° |
| 2026-04-25 16:39 | 1.44104 | -59.46059 | 31292 ft | 454 kts | 140° |
| 2026-04-25 16:40 | 1.41631 | -59.44094 | 31561 ft | 453 kts | 139° |
| 2026-04-25 16:40 | 1.39169 | -59.42138 | 31857 ft | 452 kts | 139° |
| 2026-04-25 16:40 | 1.36709 | -59.40185 | 32190 ft | 450 kts | 139° |
| 2026-04-25 16:40 | 1.34254 | -59.38236 | 32512 ft | 448 kts | 139° |
| 2026-04-25 16:41 | 1.31808 | -59.36293 | 32815 ft | 447 kts | 139° |
| 2026-04-25 16:41 | 1.30198 | -59.35015 | 33006 ft | 446 kts | 139° |
| 2026-04-25 16:41 | 1.24536 | -59.30518 | 33726 ft | 443 kts | 139° |
| 2026-04-25 16:42 | 1.22157 | -59.28629 | 33986 ft | 443 kts | 139° |
| 2026-04-25 16:42 | 1.19713 | -59.26688 | 34238 ft | 442 kts | 139° |
| 2026-04-25 16:42 | 1.17340 | -59.24804 | 34498 ft | 440 kts | 139° |
| 2026-04-25 16:42 | 1.14950 | -59.22907 | 34768 ft | 438 kts | 139° |
| 2026-04-25 16:43 | 1.12565 | -59.21012 | 35035 ft | 437 kts | 139° |
| 2026-04-25 16:43 | 1.10186 | -59.19124 | 35276 ft | 436 kts | 139° |
| 2026-04-25 16:43 | 1.07813 | -59.17239 | 35515 ft | 435 kts | 139° |
| 2026-04-25 16:43 | 1.05451 | -59.15364 | 35747 ft | 434 kts | 139° |
| 2026-04-25 16:44 | 1.03089 | -59.13488 | 35963 ft | 433 kts | 139° |
| 2026-04-25 16:44 | 1.00736 | -59.11620 | 36179 ft | 432 kts | 139° |
| 2026-04-25 16:44 | 0.98382 | -59.09751 | 36401 ft | 431 kts | 139° |
| 2026-04-25 16:44 | 0.96033 | -59.07887 | 36615 ft | 430 kts | 139° |
| 2026-04-25 16:45 | 0.93693 | -59.06029 | 36818 ft | 430 kts | 139° |
| 2026-04-25 16:45 | 0.91352 | -59.04170 | 36949 ft | 430 kts | 139° |
| 2026-04-25 16:45 | 0.86649 | -59.00436 | 36951 ft | 431 kts | 139° |
| 2026-04-25 16:46 | 0.81996 | -58.96743 | 36946 ft | 428 kts | 139° |
| 2026-04-25 16:46 | 0.78880 | -58.94270 | 36945 ft | 427 kts | 139° |
| 2026-04-25 16:47 | 0.72712 | -58.89374 | 36948 ft | 424 kts | 139° |
| 2026-04-25 16:47 | 0.68089 | -58.85704 | 36948 ft | 424 kts | 139° |
| 2026-04-25 16:48 | 0.63472 | -58.82039 | 36949 ft | 424 kts | 139° |
| 2026-04-25 16:48 | 0.58847 | -58.78367 | 36955 ft | 425 kts | 139° |
| 2026-04-25 16:49 | 0.54204 | -58.74681 | 36946 ft | 427 kts | 139° |
| 2026-04-25 16:49 | 0.49535 | -58.70976 | 36948 ft | 429 kts | 139° |
| 2026-04-25 16:50 | 0.44847 | -58.67255 | 36943 ft | 431 kts | 139° |
| 2026-04-25 16:50 | 0.40171 | -58.63544 | 36943 ft | 432 kts | 139° |
| 2026-04-25 16:51 | 0.35440 | -58.59789 | 36949 ft | 434 kts | 139° |
| 2026-04-25 16:51 | 0.31511 | -58.56671 | 36943 ft | 434 kts | 139° |
| 2026-04-25 16:52 | 0.25972 | -58.52275 | 36937 ft | 435 kts | 139° |
| 2026-04-25 16:52 | 0.21236 | -58.48516 | 36943 ft | 435 kts | 139° |
| 2026-04-25 16:53 | 0.14165 | -58.42906 | 36941 ft | 434 kts | 139° |
| 2026-04-25 16:54 | 0.09442 | -58.39157 | 36946 ft | 433 kts | 139° |
| 2026-04-25 16:54 | 0.04730 | -58.35418 | 36948 ft | 432 kts | 139° |
| 2026-04-25 16:55 | 0.00027 | -58.31685 | 36944 ft | 431 kts | 139° |
| 2026-04-25 16:55 | -0.04662 | -58.27964 | 36935 ft | 430 kts | 139° |
| 2026-04-25 16:56 | -0.09343 | -58.24250 | 36943 ft | 429 kts | 139° |
| 2026-04-25 16:56 | -0.14025 | -58.20533 | 36939 ft | 429 kts | 139° |
| 2026-04-25 16:57 | -0.18693 | -58.16828 | 36939 ft | 429 kts | 139° |
| 2026-04-25 16:57 | -0.23366 | -58.13120 | 36952 ft | 429 kts | 139° |
| 2026-04-25 16:58 | -0.28010 | -58.09434 | 36951 ft | 429 kts | 139° |
| 2026-04-25 16:58 | -0.32696 | -58.05714 | 36942 ft | 430 kts | 139° |
| 2026-04-25 16:59 | -0.37381 | -58.01996 | 36949 ft | 430 kts | 139° |
| 2026-04-25 16:59 | -0.42085 | -57.98262 | 36945 ft | 432 kts | 139° |
| 2026-04-25 17:00 | -0.46795 | -57.94524 | 36950 ft | 434 kts | 139° |
| 2026-04-25 17:00 | -0.51504 | -57.90786 | 36932 ft | 435 kts | 139° |
| 2026-04-25 17:01 | -0.56248 | -57.87020 | 36936 ft | 434 kts | 139° |
| 2026-04-25 17:01 | -0.60976 | -57.83267 | 36943 ft | 434 kts | 139° |
| 2026-04-25 17:02 | -0.65699 | -57.79518 | 36945 ft | 433 kts | 139° |
| 2026-04-25 17:02 | -0.70431 | -57.75781 | 36938 ft | 433 kts | 139° |
| 2026-04-25 17:03 | -0.75165 | -57.72066 | 36934 ft | 433 kts | 139° |
| 2026-04-25 17:03 | -0.79900 | -57.68350 | 36939 ft | 432 kts | 139° |
| 2026-04-25 17:04 | -0.84623 | -57.64639 | 36941 ft | 432 kts | 139° |
| 2026-04-25 17:04 | -0.89350 | -57.60923 | 36936 ft | 432 kts | 139° |
| 2026-04-25 17:05 | -0.94042 | -57.57234 | 36935 ft | 432 kts | 139° |
| 2026-04-25 17:05 | -1.01138 | -57.51655 | 36935 ft | 433 kts | 139° |
| 2026-04-25 17:06 | -1.05876 | -57.47930 | 36931 ft | 433 kts | 139° |
| 2026-04-25 17:06 | -1.10620 | -57.44199 | 36931 ft | 434 kts | 139° |
| 2026-04-25 17:07 | -1.15364 | -57.40469 | 36926 ft | 434 kts | 139° |
| 2026-04-25 17:07 | -1.20118 | -57.36731 | 36924 ft | 435 kts | 139° |
| 2026-04-25 17:08 | -1.24868 | -57.32995 | 36927 ft | 435 kts | 139° |
| 2026-04-25 17:08 | -1.29620 | -57.29258 | 36923 ft | 435 kts | 139° |
| 2026-04-25 17:09 | -1.33574 | -57.26149 | 36922 ft | 435 kts | 139° |
| 2026-04-25 17:09 | -1.39128 | -57.21781 | 36924 ft | 435 kts | 139° |
| 2026-04-25 17:10 | -1.43075 | -57.18676 | 36922 ft | 434 kts | 139° |
| 2026-04-25 17:10 | -1.48592 | -57.14336 | 36915 ft | 434 kts | 139° |
| 2026-04-25 17:11 | -1.52572 | -57.11205 | 36921 ft | 434 kts | 139° |
| 2026-04-25 17:11 | -1.57315 | -57.07474 | 36921 ft | 434 kts | 139° |
| 2026-04-25 17:12 | -1.62059 | -57.03742 | 36916 ft | 433 kts | 139° |
| 2026-04-25 17:12 | -1.66765 | -57.00040 | 36922 ft | 433 kts | 139° |
| 2026-04-25 17:13 | -1.70726 | -56.96923 | 36919 ft | 432 kts | 139° |
| 2026-04-25 17:13 | -1.76221 | -56.92599 | 36920 ft | 432 kts | 139° |
| 2026-04-25 17:14 | -1.80945 | -56.88881 | 36921 ft | 432 kts | 139° |
| 2026-04-25 17:14 | -1.85661 | -56.85170 | 36920 ft | 431 kts | 139° |
| 2026-04-25 17:15 | -1.90378 | -56.81457 | 36921 ft | 431 kts | 139° |
| 2026-04-25 17:15 | -1.95093 | -56.77746 | 36919 ft | 431 kts | 139° |
| 2026-04-25 17:16 | -1.99807 | -56.74036 | 36917 ft | 431 kts | 139° |
| 2026-04-25 17:16 | -2.04514 | -56.70330 | 36918 ft | 431 kts | 139° |
| 2026-04-25 17:17 | -2.09194 | -56.66646 | 36918 ft | 431 kts | 139° |
| 2026-04-25 17:17 | -2.13900 | -56.62940 | 36914 ft | 431 kts | 139° |
| 2026-04-25 17:18 | -2.18622 | -56.59222 | 36913 ft | 431 kts | 139° |
| 2026-04-25 17:18 | -2.23327 | -56.55517 | 36917 ft | 431 kts | 139° |
| 2026-04-25 17:19 | -2.28036 | -56.51808 | 36913 ft | 430 kts | 139° |
| 2026-04-25 17:19 | -2.32739 | -56.48104 | 36915 ft | 430 kts | 139° |
| 2026-04-25 17:20 | -2.37415 | -56.44420 | 36912 ft | 430 kts | 139° |
| 2026-04-25 17:20 | -2.42117 | -56.40716 | 36913 ft | 430 kts | 139° |
| 2026-04-25 17:21 | -2.46824 | -56.37007 | 36912 ft | 430 kts | 139° |
| 2026-04-25 17:21 | -2.51527 | -56.33301 | 36912 ft | 431 kts | 139° |
| 2026-04-25 17:22 | -2.55442 | -56.30215 | 36917 ft | 430 kts | 138° |
| 2026-04-25 17:22 | -2.60977 | -56.25929 | 36911 ft | 432 kts | 141° |
| 2026-04-25 17:23 | -2.65959 | -56.22618 | 36916 ft | 433 kts | 143° |
| 2026-04-25 17:23 | -2.71028 | -56.19357 | 36910 ft | 433 kts | 143° |
| 2026-04-25 17:24 | -2.76071 | -56.16078 | 36911 ft | 432 kts | 143° |
| 2026-04-25 17:24 | -2.81103 | -56.12778 | 36913 ft | 432 kts | 143° |
| 2026-04-25 17:25 | -2.86123 | -56.09478 | 36909 ft | 432 kts | 143° |
| 2026-04-25 17:25 | -2.91139 | -56.06180 | 36912 ft | 431 kts | 143° |
| 2026-04-25 17:26 | -2.96160 | -56.02879 | 36910 ft | 431 kts | 143° |
| 2026-04-25 17:26 | -3.01177 | -55.99581 | 36911 ft | 432 kts | 143° |
| 2026-04-25 17:27 | -3.06201 | -55.96278 | 36905 ft | 432 kts | 143° |
| 2026-04-25 17:27 | -3.09527 | -55.94090 | 36916 ft | 432 kts | 143° |
| 2026-04-25 17:28 | -3.16258 | -55.89664 | 36912 ft | 433 kts | 143° |
| 2026-04-25 17:28 | -3.21258 | -55.86369 | 36916 ft | 434 kts | 143° |
| 2026-04-25 17:29 | -3.26308 | -55.83042 | 36914 ft | 435 kts | 143° |
| 2026-04-25 17:29 | -3.31366 | -55.79709 | 36910 ft | 435 kts | 143° |
| 2026-04-25 17:30 | -3.36427 | -55.76373 | 36914 ft | 436 kts | 143° |
| 2026-04-25 17:30 | -3.41507 | -55.73024 | 36912 ft | 437 kts | 143° |
| 2026-04-25 17:31 | -3.46583 | -55.69677 | 36911 ft | 437 kts | 143° |
| 2026-04-25 17:31 | -3.51671 | -55.66321 | 36916 ft | 438 kts | 143° |
| 2026-04-25 17:32 | -3.56763 | -55.62964 | 36911 ft | 438 kts | 143° |
| 2026-04-25 17:32 | -3.61850 | -55.59607 | 36909 ft | 438 kts | 143° |
| 2026-04-25 17:33 | -3.66938 | -55.56251 | 36913 ft | 438 kts | 143° |
| 2026-04-25 17:33 | -3.71992 | -55.52916 | 36912 ft | 438 kts | 143° |
| 2026-04-25 17:34 | -3.77083 | -55.49557 | 36912 ft | 438 kts | 143° |
| 2026-04-25 17:34 | -3.82168 | -55.46200 | 36908 ft | 437 kts | 143° |
| 2026-04-25 17:35 | -3.87246 | -55.42848 | 36905 ft | 437 kts | 143° |
| 2026-04-25 17:35 | -3.92319 | -55.39498 | 36904 ft | 436 kts | 143° |
| 2026-04-25 17:36 | -3.97378 | -55.36156 | 36904 ft | 435 kts | 143° |
| 2026-04-25 17:36 | -4.02439 | -55.32815 | 36906 ft | 435 kts | 143° |
| 2026-04-25 17:37 | -4.07494 | -55.29483 | 36905 ft | 435 kts | 144° |
| 2026-04-25 17:37 | -4.12551 | -55.26152 | 36913 ft | 435 kts | 144° |
| 2026-04-25 17:38 | -4.15908 | -55.23939 | 36910 ft | 436 kts | 144° |
| 2026-04-25 17:38 | -4.22669 | -55.19481 | 36912 ft | 437 kts | 144° |
| 2026-04-25 17:39 | -4.27750 | -55.16130 | 36908 ft | 438 kts | 144° |
| 2026-04-25 17:39 | -4.32852 | -55.12764 | 36906 ft | 439 kts | 144° |
| 2026-04-25 17:40 | -4.37958 | -55.09395 | 36910 ft | 440 kts | 144° |
| 2026-04-25 17:40 | -4.43036 | -55.06045 | 36914 ft | 441 kts | 144° |
| 2026-04-25 17:41 | -4.48166 | -55.02659 | 36909 ft | 442 kts | 144° |
| 2026-04-25 17:41 | -4.53305 | -54.99267 | 36914 ft | 442 kts | 144° |
| 2026-04-25 17:42 | -4.58451 | -54.95869 | 36913 ft | 443 kts | 144° |
| 2026-04-25 17:42 | -4.63607 | -54.92465 | 36916 ft | 444 kts | 144° |
| 2026-04-25 17:43 | -4.68764 | -54.89059 | 36913 ft | 444 kts | 144° |
| 2026-04-25 17:43 | -4.73931 | -54.85646 | 36914 ft | 445 kts | 144° |
| 2026-04-25 17:44 | -4.79098 | -54.82232 | 36911 ft | 445 kts | 144° |
| 2026-04-25 17:44 | -4.84281 | -54.78806 | 36908 ft | 446 kts | 144° |
| 2026-04-25 17:45 | -4.87714 | -54.76537 | 36912 ft | 446 kts | 144° |
| 2026-04-25 17:45 | -4.94615 | -54.71975 | 36915 ft | 446 kts | 144° |
| 2026-04-25 17:46 | -4.99799 | -54.68546 | 36908 ft | 447 kts | 144° |
| 2026-04-25 17:46 | -5.04985 | -54.65117 | 36907 ft | 446 kts | 144° |
| 2026-04-25 17:47 | -5.10181 | -54.61686 | 36908 ft | 446 kts | 144° |
| 2026-04-25 17:47 | -5.15371 | -54.58259 | 36904 ft | 446 kts | 144° |
| 2026-04-25 17:48 | -5.23112 | -54.53143 | 36907 ft | 446 kts | 144° |
| 2026-04-25 17:49 | -5.28295 | -54.49716 | 36905 ft | 446 kts | 144° |
| 2026-04-25 17:49 | -5.33473 | -54.46292 | 36903 ft | 445 kts | 144° |
| 2026-04-25 17:50 | -5.38648 | -54.42869 | 36900 ft | 445 kts | 144° |
| 2026-04-25 17:50 | -5.43813 | -54.39453 | 36899 ft | 444 kts | 144° |
| 2026-04-25 17:51 | -5.48978 | -54.36035 | 36899 ft | 444 kts | 144° |
| 2026-04-25 17:51 | -5.54141 | -54.32618 | 36898 ft | 444 kts | 144° |
| 2026-04-25 17:52 | -5.59262 | -54.29227 | 36897 ft | 444 kts | 144° |
| 2026-04-25 17:52 | -5.64420 | -54.25812 | 36899 ft | 444 kts | 144° |
| 2026-04-25 17:53 | -5.69583 | -54.22419 | 36898 ft | 444 kts | 144° |
| 2026-04-25 17:53 | -5.74788 | -54.19078 | 36900 ft | 444 kts | 144° |
| 2026-04-25 17:54 | -5.79995 | -54.15745 | 36896 ft | 443 kts | 144° |
| 2026-04-25 17:54 | -5.85194 | -54.12407 | 36901 ft | 443 kts | 144° |
| 2026-04-25 17:55 | -5.90388 | -54.09065 | 36892 ft | 443 kts | 144° |
| 2026-04-25 17:55 | -5.95544 | -54.05745 | 36897 ft | 443 kts | 144° |
| 2026-04-25 17:56 | -6.00732 | -54.02404 | 36893 ft | 443 kts | 144° |
| 2026-04-25 17:56 | -6.05044 | -53.99626 | 36891 ft | 442 kts | 144° |
| 2026-04-25 17:57 | -6.11103 | -53.95722 | 36894 ft | 442 kts | 144° |
| 2026-04-25 17:57 | -6.15412 | -53.92946 | 36893 ft | 442 kts | 144° |
| 2026-04-25 17:58 | -6.20586 | -53.89610 | 36895 ft | 442 kts | 144° |
| 2026-04-25 17:58 | -6.25759 | -53.86275 | 36891 ft | 442 kts | 144° |
| 2026-04-25 17:59 | -6.30935 | -53.82937 | 36894 ft | 441 kts | 144° |
| 2026-04-25 17:59 | -6.36104 | -53.79603 | 36892 ft | 441 kts | 144° |
| 2026-04-25 18:00 | -6.41265 | -53.76273 | 36894 ft | 441 kts | 144° |
| 2026-04-25 18:00 | -6.46435 | -53.72937 | 36893 ft | 441 kts | 144° |
| 2026-04-25 18:01 | -6.51592 | -53.69608 | 36897 ft | 441 kts | 144° |
| 2026-04-25 18:01 | -6.56752 | -53.66276 | 36898 ft | 441 kts | 144° |
| 2026-04-25 18:02 | -6.61882 | -53.62963 | 36893 ft | 442 kts | 144° |
| 2026-04-25 18:02 | -6.67057 | -53.59620 | 36897 ft | 442 kts | 144° |
| 2026-04-25 18:03 | -6.72240 | -53.56271 | 36900 ft | 442 kts | 144° |
| 2026-04-25 18:03 | -6.77284 | -53.53011 | 36895 ft | 443 kts | 144° |
| 2026-04-25 18:04 | -6.82469 | -53.49658 | 36894 ft | 443 kts | 144° |
| 2026-04-25 18:04 | -6.87636 | -53.46317 | 36897 ft | 443 kts | 144° |
| 2026-04-25 18:05 | -6.92790 | -53.42984 | 36897 ft | 443 kts | 144° |
| 2026-04-25 18:05 | -6.97980 | -53.39625 | 36899 ft | 443 kts | 144° |
| 2026-04-25 18:06 | -7.03171 | -53.36266 | 36901 ft | 443 kts | 144° |
| 2026-04-25 18:06 | -7.08366 | -53.32903 | 36897 ft | 444 kts | 144° |
| 2026-04-25 18:07 | -7.13566 | -53.29536 | 36897 ft | 444 kts | 144° |
| 2026-04-25 18:07 | -7.18742 | -53.26183 | 36895 ft | 445 kts | 144° |
| 2026-04-25 18:08 | -7.23945 | -53.22812 | 36900 ft | 445 kts | 144° |
| 2026-04-25 18:08 | -7.29153 | -53.19438 | 36896 ft | 445 kts | 144° |
| 2026-04-25 18:09 | -7.34370 | -53.16056 | 36897 ft | 446 kts | 144° |
| 2026-04-25 18:09 | -7.39586 | -53.12674 | 36900 ft | 446 kts | 144° |
| 2026-04-25 18:10 | -7.44811 | -53.09285 | 36907 ft | 446 kts | 144° |
| 2026-04-25 18:10 | -7.50039 | -53.05893 | 36893 ft | 447 kts | 144° |
| 2026-04-25 18:11 | -7.55261 | -53.02504 | 36896 ft | 447 kts | 144° |
| 2026-04-25 18:11 | -7.60489 | -52.99110 | 36901 ft | 446 kts | 144° |
| 2026-04-25 18:12 | -7.65715 | -52.95716 | 36897 ft | 446 kts | 145° |
| 2026-04-25 18:12 | -7.70898 | -52.92350 | 36900 ft | 446 kts | 144° |
| 2026-04-25 18:13 | -7.76124 | -52.88954 | 36902 ft | 446 kts | 145° |
| 2026-04-25 18:13 | -7.81340 | -52.85564 | 36896 ft | 446 kts | 145° |
| 2026-04-25 18:14 | -7.89173 | -52.80471 | 36894 ft | 446 kts | 145° |
| 2026-04-25 18:14 | -7.94388 | -52.77079 | 36899 ft | 446 kts | 145° |
| 2026-04-25 18:15 | -7.99610 | -52.73681 | 36895 ft | 446 kts | 145° |
| 2026-04-25 18:15 | -8.04833 | -52.70282 | 36895 ft | 446 kts | 144° |
| 2026-04-25 18:16 | -8.10052 | -52.66884 | 36899 ft | 447 kts | 145° |
| 2026-04-25 18:17 | -8.17890 | -52.61779 | 36900 ft | 447 kts | 145° |
| 2026-04-25 18:17 | -8.23100 | -52.58384 | 36900 ft | 448 kts | 145° |
| 2026-04-25 18:18 | -8.28348 | -52.54964 | 36899 ft | 449 kts | 145° |
| 2026-04-25 18:18 | -8.33593 | -52.51544 | 36899 ft | 449 kts | 145° |
| 2026-04-25 18:19 | -8.38842 | -52.48120 | 36900 ft | 449 kts | 145° |
| 2026-04-25 18:19 | -8.44100 | -52.44689 | 36896 ft | 450 kts | 145° |
| 2026-04-25 18:20 | -8.49355 | -52.41259 | 36899 ft | 450 kts | 145° |
| 2026-04-25 18:20 | -8.54619 | -52.37822 | 36895 ft | 450 kts | 145° |
| 2026-04-25 18:21 | -8.59892 | -52.34381 | 36900 ft | 450 kts | 145° |
| 2026-04-25 18:21 | -8.65125 | -52.30975 | 36896 ft | 451 kts | 145° |
| 2026-04-25 18:22 | -8.70401 | -52.27540 | 36902 ft | 451 kts | 145° |
| 2026-04-25 18:22 | -8.75681 | -52.24099 | 36898 ft | 451 kts | 145° |
| 2026-04-25 18:23 | -8.80957 | -52.20659 | 36897 ft | 452 kts | 145° |
| 2026-04-25 18:23 | -8.86236 | -52.17216 | 36896 ft | 452 kts | 145° |
| 2026-04-25 18:24 | -8.91521 | -52.13767 | 36899 ft | 452 kts | 145° |
| 2026-04-25 18:24 | -8.96786 | -52.10331 | 36903 ft | 452 kts | 145° |
| 2026-04-25 18:25 | -9.02072 | -52.06879 | 36905 ft | 452 kts | 145° |
| 2026-04-25 18:25 | -9.07360 | -52.03424 | 36904 ft | 452 kts | 145° |
| 2026-04-25 18:26 | -9.12501 | -52.00065 | 36904 ft | 452 kts | 145° |
| 2026-04-25 18:26 | -9.17790 | -51.96608 | 36899 ft | 453 kts | 145° |
| 2026-04-25 18:27 | -9.23079 | -51.93150 | 36906 ft | 453 kts | 145° |
| 2026-04-25 18:27 | -9.28378 | -51.89683 | 36896 ft | 453 kts | 145° |
| 2026-04-25 18:28 | -9.33663 | -51.86225 | 36907 ft | 452 kts | 145° |
| 2026-04-25 18:28 | -9.38955 | -51.82761 | 36900 ft | 452 kts | 145° |
| 2026-04-25 18:29 | -9.46874 | -51.77574 | 36906 ft | 452 kts | 145° |
| 2026-04-25 18:30 | -9.57419 | -51.70664 | 36903 ft | 451 kts | 145° |
| 2026-04-25 18:30 | -9.62682 | -51.67213 | 36901 ft | 450 kts | 145° |
| 2026-04-25 18:31 | -9.67948 | -51.63759 | 36901 ft | 450 kts | 145° |
| 2026-04-25 18:31 | -9.73169 | -51.60333 | 36905 ft | 450 kts | 145° |
| 2026-04-25 18:32 | -9.78421 | -51.56885 | 36899 ft | 450 kts | 145° |
| 2026-04-25 18:32 | -9.83673 | -51.53436 | 36901 ft | 449 kts | 145° |
| 2026-04-25 18:33 | -9.88913 | -51.49994 | 36904 ft | 449 kts | 145° |
| 2026-04-25 18:33 | -9.94158 | -51.46547 | 36903 ft | 449 kts | 145° |
| 2026-04-25 18:34 | -9.99402 | -51.43099 | 36899 ft | 450 kts | 145° |
| 2026-04-25 18:34 | -10.04627 | -51.39662 | 36906 ft | 450 kts | 145° |
| 2026-04-25 18:35 | -10.09896 | -51.36194 | 36903 ft | 452 kts | 145° |
| 2026-04-25 18:35 | -10.15179 | -51.32717 | 36901 ft | 453 kts | 145° |
| 2026-04-25 18:36 | -10.20473 | -51.29231 | 36898 ft | 454 kts | 145° |
| 2026-04-25 18:36 | -10.25777 | -51.25737 | 36901 ft | 454 kts | 145° |
| 2026-04-25 18:37 | -10.31082 | -51.22240 | 36901 ft | 455 kts | 145° |
| 2026-04-25 18:37 | -10.36365 | -51.18756 | 36901 ft | 456 kts | 145° |
| 2026-04-25 18:38 | -10.41683 | -51.15248 | 36896 ft | 456 kts | 145° |
| 2026-04-25 18:38 | -10.47016 | -51.11728 | 36893 ft | 456 kts | 145° |
| 2026-04-25 18:39 | -10.52352 | -51.08225 | 36897 ft | 456 kts | 147° |
| 2026-04-25 18:39 | -10.57835 | -51.04970 | 36897 ft | 456 kts | 149° |
| 2026-04-25 18:40 | -10.63370 | -51.01813 | 36897 ft | 456 kts | 149° |
| 2026-04-25 18:40 | -10.68897 | -50.98634 | 36890 ft | 456 kts | 149° |
| 2026-04-25 18:41 | -10.74373 | -50.95454 | 36894 ft | 455 kts | 148° |
| 2026-04-25 18:41 | -10.79867 | -50.92252 | 36893 ft | 454 kts | 148° |
| 2026-04-25 18:42 | -10.83533 | -50.90114 | 36891 ft | 454 kts | 148° |
| 2026-04-25 18:42 | -10.90827 | -50.85860 | 36894 ft | 453 kts | 148° |
| 2026-04-25 18:43 | -10.96300 | -50.82666 | 36895 ft | 453 kts | 148° |
| 2026-04-25 18:43 | -11.00839 | -50.80017 | 36895 ft | 452 kts | 148° |
| 2026-04-25 18:44 | -11.06294 | -50.76832 | 36900 ft | 452 kts | 148° |
| 2026-04-25 18:44 | -11.11754 | -50.73643 | 36899 ft | 452 kts | 148° |
| 2026-04-25 18:45 | -11.17204 | -50.70458 | 36899 ft | 452 kts | 148° |
| 2026-04-25 18:45 | -11.22652 | -50.67272 | 36902 ft | 452 kts | 148° |
| 2026-04-25 18:46 | -11.28101 | -50.64085 | 36896 ft | 452 kts | 148° |
| 2026-04-25 18:46 | -11.33556 | -50.60892 | 36899 ft | 452 kts | 148° |
| 2026-04-25 18:47 | -11.39013 | -50.57697 | 36903 ft | 452 kts | 148° |
| 2026-04-25 18:47 | -11.44443 | -50.54520 | 36897 ft | 452 kts | 149° |
| 2026-04-25 18:48 | -11.49900 | -50.51330 | 36901 ft | 452 kts | 149° |
| 2026-04-25 18:48 | -11.55364 | -50.48134 | 36896 ft | 452 kts | 149° |
| 2026-04-25 18:49 | -11.60833 | -50.44933 | 36905 ft | 452 kts | 149° |
| 2026-04-25 18:49 | -11.66288 | -50.41738 | 36903 ft | 452 kts | 149° |
| 2026-04-25 18:50 | -11.71705 | -50.38563 | 36896 ft | 452 kts | 149° |
| 2026-04-25 18:50 | -11.77154 | -50.35368 | 36895 ft | 452 kts | 149° |
| 2026-04-25 18:51 | -11.81716 | -50.32692 | 36902 ft | 451 kts | 148° |
| 2026-04-25 18:51 | -11.88045 | -50.28978 | 36895 ft | 451 kts | 148° |
| 2026-04-25 18:52 | -11.93486 | -50.25784 | 36901 ft | 450 kts | 148° |
| 2026-04-25 18:52 | -11.98921 | -50.22591 | 36897 ft | 450 kts | 148° |
| 2026-04-25 18:53 | -12.04345 | -50.19404 | 36894 ft | 450 kts | 148° |
| 2026-04-25 18:53 | -12.09769 | -50.16215 | 36895 ft | 449 kts | 149° |
| 2026-04-25 18:54 | -12.17852 | -50.11460 | 36896 ft | 448 kts | 149° |
| 2026-04-25 18:55 | -12.23255 | -50.08279 | 36893 ft | 448 kts | 149° |
| 2026-04-25 18:55 | -12.28494 | -50.05194 | 36897 ft | 448 kts | 148° |
| 2026-04-25 18:56 | -12.33892 | -50.02014 | 36896 ft | 448 kts | 149° |
| 2026-04-25 18:56 | -12.39291 | -49.98831 | 36895 ft | 448 kts | 149° |
| 2026-04-25 18:57 | -12.44687 | -49.95649 | 36901 ft | 448 kts | 148° |
| 2026-04-25 18:57 | -12.50082 | -49.92466 | 36901 ft | 448 kts | 148° |
| 2026-04-25 18:58 | -12.55474 | -49.89282 | 36903 ft | 448 kts | 148° |
| 2026-04-25 18:58 | -12.63581 | -49.84493 | 36901 ft | 448 kts | 148° |
| 2026-04-25 18:59 | -12.74390 | -49.78103 | 36899 ft | 448 kts | 148° |
| 2026-04-25 19:00 | -12.82469 | -49.73322 | 36897 ft | 448 kts | 148° |
| 2026-04-25 19:01 | -12.90574 | -49.68521 | 36905 ft | 448 kts | 148° |
| 2026-04-25 19:01 | -12.95970 | -49.65324 | 36903 ft | 448 kts | 148° |
| 2026-04-25 19:02 | -13.04094 | -49.60564 | 36903 ft | 448 kts | 148° |
| 2026-04-25 19:03 | -13.11298 | -49.56351 | 36901 ft | 447 kts | 148° |
| 2026-04-25 19:03 | -13.17584 | -49.52668 | 36897 ft | 447 kts | 148° |
| 2026-04-25 19:04 | -13.25686 | -49.47914 | 36904 ft | 447 kts | 148° |
| 2026-04-25 19:05 | -13.36483 | -49.41573 | 36904 ft | 446 kts | 148° |
| 2026-04-25 19:06 | -13.41842 | -49.38423 | 36906 ft | 447 kts | 148° |
| 2026-04-25 19:06 | -13.49936 | -49.33663 | 36912 ft | 447 kts | 148° |
| 2026-04-25 19:07 | -13.58032 | -49.28898 | 36908 ft | 447 kts | 148° |
| 2026-04-25 19:08 | -13.66144 | -49.24119 | 36908 ft | 448 kts | 148° |
| 2026-04-25 19:09 | -13.76048 | -49.18279 | 36911 ft | 448 kts | 148° |
| 2026-04-25 19:10 | -13.85219 | -49.13291 | 36915 ft | 450 kts | 154° |
| 2026-04-25 19:10 | -13.90974 | -49.10744 | 36911 ft | 450 kts | 154° |
| 2026-04-25 19:11 | -13.96738 | -49.08203 | 36907 ft | 451 kts | 154° |
| 2026-04-25 19:11 | -14.02493 | -49.05620 | 36910 ft | 451 kts | 154° |
| 2026-04-25 19:11 | -14.05382 | -49.04311 | 36464 ft | 457 kts | 154° |
| 2026-04-25 19:12 | -14.08275 | -49.02998 | 36130 ft | 451 kts | 154° |
| 2026-04-25 19:12 | -14.11132 | -49.01701 | 35683 ft | 447 kts | 154° |
| 2026-04-25 19:12 | -14.13972 | -49.00409 | 35268 ft | 444 kts | 154° |
| 2026-04-25 19:12 | -14.16793 | -48.99126 | 34846 ft | 441 kts | 154° |
| 2026-04-25 19:13 | -14.19595 | -48.97852 | 34425 ft | 438 kts | 154° |
| 2026-04-25 19:13 | -14.22339 | -48.96604 | 34014 ft | 436 kts | 154° |
| 2026-04-25 19:13 | -14.25107 | -48.95344 | 33551 ft | 433 kts | 154° |
| 2026-04-25 19:13 | -14.27850 | -48.94096 | 33105 ft | 430 kts | 154° |
| 2026-04-25 19:14 | -14.30578 | -48.92854 | 32685 ft | 427 kts | 154° |
| 2026-04-25 19:14 | -14.31493 | -48.92438 | 32542 ft | 426 kts | 154° |
| 2026-04-25 19:14 | -14.35969 | -48.90400 | 31859 ft | 420 kts | 154° |
| 2026-04-25 19:14 | -14.38638 | -48.89184 | 31455 ft | 417 kts | 154° |
| 2026-04-25 19:15 | -14.41282 | -48.87979 | 31061 ft | 415 kts | 154° |
| 2026-04-25 19:15 | -14.43916 | -48.86779 | 30664 ft | 412 kts | 154° |
| 2026-04-25 19:15 | -14.46527 | -48.85588 | 30281 ft | 410 kts | 154° |
| 2026-04-25 19:15 | -14.49130 | -48.84401 | 29855 ft | 408 kts | 154° |
| 2026-04-25 19:16 | -14.51718 | -48.83220 | 29403 ft | 405 kts | 154° |
| 2026-04-25 19:16 | -14.54287 | -48.82049 | 28980 ft | 402 kts | 154° |
| 2026-04-25 19:16 | -14.56835 | -48.80886 | 28558 ft | 398 kts | 154° |
| 2026-04-25 19:16 | -14.59357 | -48.79735 | 28149 ft | 395 kts | 154° |
| 2026-04-25 19:17 | -14.61838 | -48.78602 | 27755 ft | 392 kts | 154° |
| 2026-04-25 19:17 | -14.64322 | -48.77468 | 27365 ft | 390 kts | 154° |
| 2026-04-25 19:17 | -14.66796 | -48.76338 | 26966 ft | 387 kts | 154° |
| 2026-04-25 19:17 | -14.69254 | -48.75215 | 26576 ft | 385 kts | 154° |
| 2026-04-25 19:18 | -14.71697 | -48.74097 | 26192 ft | 383 kts | 154° |
| 2026-04-25 19:18 | -14.74130 | -48.72985 | 25801 ft | 381 kts | 154° |
| 2026-04-25 19:18 | -14.76552 | -48.71878 | 25411 ft | 380 kts | 154° |
| 2026-04-25 19:18 | -14.78960 | -48.70776 | 25018 ft | 378 kts | 154° |
| 2026-04-25 19:19 | -14.81373 | -48.69672 | 24607 ft | 378 kts | 154° |
| 2026-04-25 19:19 | -14.83744 | -48.68587 | 24222 ft | 377 kts | 154° |
| 2026-04-25 19:19 | -14.86143 | -48.67489 | 23834 ft | 376 kts | 154° |
| 2026-04-25 19:19 | -14.86950 | -48.67119 | 23698 ft | 376 kts | 154° |
| 2026-04-25 19:20 | -14.90925 | -48.65299 | 22983 ft | 375 kts | 154° |
| 2026-04-25 19:20 | -14.93309 | -48.64207 | 22572 ft | 372 kts | 154° |
| 2026-04-25 19:20 | -14.95668 | -48.63126 | 22175 ft | 370 kts | 154° |
| 2026-04-25 19:20 | -14.98019 | -48.62049 | 21787 ft | 368 kts | 155° |
| 2026-04-25 19:21 | -15.00351 | -48.60980 | 21399 ft | 366 kts | 155° |
| 2026-04-25 19:21 | -15.04982 | -48.58856 | 20646 ft | 362 kts | 155° |
| 2026-04-25 19:21 | -15.07283 | -48.57801 | 20264 ft | 360 kts | 155° |
| 2026-04-25 19:22 | -15.09567 | -48.56753 | 19889 ft | 359 kts | 155° |
| 2026-04-25 19:22 | -15.11849 | -48.55706 | 19501 ft | 358 kts | 155° |
| 2026-04-25 19:22 | -15.16393 | -48.53619 | 18754 ft | 355 kts | 156° |
| 2026-04-25 19:23 | -15.18619 | -48.52597 | 18372 ft | 354 kts | 156° |
| 2026-04-25 19:23 | -15.23106 | -48.50535 | 17557 ft | 351 kts | 156° |
| 2026-04-25 19:23 | -15.25326 | -48.49515 | 17181 ft | 348 kts | 156° |
| 2026-04-25 19:24 | -15.27536 | -48.48500 | 16808 ft | 346 kts | 156° |
| 2026-04-25 19:24 | -15.29725 | -48.47493 | 16440 ft | 344 kts | 156° |
| 2026-04-25 19:24 | -15.34074 | -48.45493 | 15720 ft | 339 kts | 156° |
| 2026-04-25 19:25 | -15.38359 | -48.43521 | 15023 ft | 336 kts | 157° |
| 2026-04-25 19:25 | -15.40496 | -48.42537 | 14655 ft | 335 kts | 157° |
| 2026-04-25 19:25 | -15.42621 | -48.41559 | 14289 ft | 334 kts | 157° |
| 2026-04-25 19:26 | -15.44741 | -48.40583 | 13934 ft | 333 kts | 157° |
| 2026-04-25 19:26 | -15.46853 | -48.39610 | 13548 ft | 332 kts | 157° |
| 2026-04-25 19:26 | -15.48957 | -48.38640 | 13175 ft | 329 kts | 157° |
| 2026-04-25 19:26 | -15.51044 | -48.37679 | 12811 ft | 328 kts | 157° |
| 2026-04-25 19:27 | -15.53095 | -48.36734 | 12457 ft | 326 kts | 157° |
| 2026-04-25 19:27 | -15.53793 | -48.36412 | 12337 ft | 325 kts | 157° |
| 2026-04-25 19:27 | -15.57213 | -48.34835 | 11759 ft | 322 kts | 157° |
| 2026-04-25 19:27 | -15.59254 | -48.33894 | 11416 ft | 321 kts | 157° |
| 2026-04-25 19:28 | -15.61290 | -48.32955 | 11069 ft | 319 kts | 156° |
| 2026-04-25 19:28 | -15.63316 | -48.32019 | 10736 ft | 318 kts | 156° |
| 2026-04-25 19:28 | -15.65335 | -48.31088 | 10376 ft | 317 kts | 156° |
| 2026-04-25 19:28 | -15.67337 | -48.30163 | 10179 ft | 310 kts | 156° |
| 2026-04-25 19:29 | -15.69284 | -48.29264 | 10020 ft | 303 kts | 156° |
| 2026-04-25 19:29 | -15.71189 | -48.28384 | 9915 ft | 294 kts | 156° |
| 2026-04-25 19:29 | -15.73017 | -48.27540 | 9540 ft | 295 kts | 156° |
| 2026-04-25 19:29 | -15.74907 | -48.26667 | 9102 ft | 292 kts | 156° |
| 2026-04-25 19:30 | -15.76723 | -48.25827 | 8764 ft | 286 kts | 156° |
| 2026-04-25 19:30 | -15.78529 | -48.24993 | 8540 ft | 274 kts | 156° |
| 2026-04-25 19:30 | -15.80229 | -48.24206 | 8412 ft | 261 kts | 156° |
| 2026-04-25 19:30 | -15.81843 | -48.23459 | 8287 ft | 248 kts | 157° |
| 2026-04-25 19:31 | -15.83401 | -48.22739 | 8194 ft | 242 kts | 156° |
| 2026-04-25 19:31 | -15.84397 | -48.22234 | 8125 ft | 240 kts | 147° |
| 2026-04-25 19:31 | -15.85761 | -48.20487 | 8033 ft | 237 kts | 117° |
| 2026-04-25 19:31 | -15.86480 | -48.18923 | 7839 ft | 244 kts | 115° |
| 2026-04-25 19:32 | -15.87183 | -48.17327 | 7631 ft | 238 kts | 115° |
| 2026-04-25 19:32 | -15.87624 | -48.16274 | 7474 ft | 232 kts | 109° |
| 2026-04-25 19:32 | -15.87789 | -48.14674 | 7232 ft | 222 kts | 86° |
| 2026-04-25 19:32 | -15.87713 | -48.13635 | 7119 ft | 213 kts | 86° |
| 2026-04-25 19:33 | -15.87575 | -48.11635 | 6860 ft | 204 kts | 87° |
| 2026-04-25 19:33 | -15.87480 | -48.10182 | 6618 ft | 200 kts | 87° |
| 2026-04-25 19:33 | -15.87387 | -48.08759 | 6377 ft | 195 kts | 88° |
| 2026-04-25 19:33 | -15.87298 | -48.07380 | 6132 ft | 186 kts | 87° |
| 2026-04-25 19:34 | -15.87214 | -48.06091 | 5935 ft | 173 kts | 87° |
| 2026-04-25 19:34 | -15.87134 | -48.04853 | 5698 ft | 169 kts | 87° |
| 2026-04-25 19:34 | -15.87055 | -48.03637 | 5499 ft | 169 kts | 88° |
| 2026-04-25 19:34 | -15.86977 | -48.02417 | 5291 ft | 169 kts | 87° |
| 2026-04-25 19:35 | -15.86899 | -48.01204 | 5086 ft | 167 kts | 88° |
| 2026-04-25 19:35 | -15.86822 | -48.00014 | 4869 ft | 166 kts | 87° |
| 2026-04-25 19:35 | -15.86744 | -47.98804 | 4668 ft | 166 kts | 87° |
| 2026-04-25 19:35 | -15.86668 | -47.97602 | 4452 ft | 167 kts | 87° |
| 2026-04-25 19:36 | -15.86591 | -47.96418 | 4253 ft | 167 kts | 87° |
| 2026-04-25 19:36 | -15.86514 | -47.95217 | 4019 ft | 166 kts | 88° |
| 2026-04-25 19:36 | -15.86437 | -47.94023 | 3791 ft | 167 kts | 89° |
| 2026-04-25 19:36 | -15.86360 | -47.92818 | 3541 ft | 166 kts | 89° |
| 2026-04-25 19:37 | -15.86292 | -47.91676 | 3463 ft | 139 kts | 86° |
| 2026-04-25 19:37 | -15.86247 | -47.91016 | 3474 ft | 46 kts | 86° |
| 2026-04-25 19:37 | -15.86274 | -47.90831 | 3477 ft | 11 kts | 130° |
| 2026-04-25 19:37 | -15.86322 | -47.90775 | 3481 ft | 10 kts | 130° |
| 2026-04-25 19:38 | -15.86369 | -47.90722 | 3483 ft | 10 kts | 141° |
| 2026-04-25 19:38 | -15.86422 | -47.90743 | 3479 ft | 10 kts | 255° |
| 2026-04-25 19:38 | -15.86426 | -47.90812 | 3482 ft | 10 kts | 266° |
| 2026-04-25 19:38 | -15.86431 | -47.90887 | 3479 ft | 11 kts | 267° |
| 2026-04-25 19:39 | -15.86435 | -47.90979 | 3474 ft | 14 kts | 266° |
| 2026-04-25 19:39 | -15.86443 | -47.91089 | 3470 ft | 16 kts | 266° |
| 2026-04-25 19:39 | -15.86451 | -47.91204 | 3468 ft | 16 kts | 266° |
| 2026-04-25 19:39 | -15.86457 | -47.91315 | 3467 ft | 15 kts | 266° |
| 2026-04-25 19:40 | -15.86462 | -47.91386 | 3466 ft | 15 kts | 266° |
| 2026-04-25 19:40 | -15.86471 | -47.91525 | 3464 ft | 14 kts | 265° |
| 2026-04-25 19:40 | -15.86478 | -47.91625 | 3464 ft | 13 kts | 266° |
| 2026-04-25 19:40 | -15.86484 | -47.91719 | 3466 ft | 13 kts | 265° |
| 2026-04-25 19:41 | -15.86505 | -47.91805 | 3467 ft | 13 kts | 217° |
| 2026-04-25 19:41 | -15.86590 | -47.91816 | 3470 ft | 12 kts | 202° |
| 2026-04-25 19:41 | -15.86628 | -47.91891 | 3469 ft | 12 kts | 222° |
| 2026-04-25 19:41 | -15.86681 | -47.91894 | 3471 ft | 9 kts | 174° |
| 2026-04-25 19:42 | -15.86708 | -47.91892 | 3470 ft | 0 kts | 176° |